createdAt,value
2018-03-20T00:00:50.977Z,52.36
2018-03-20T00:02:44.400Z,51.95
2018-03-20T00:03:44.216Z,52.14
2018-03-20T00:05:37.509Z,52.14
2018-03-20T00:06:37.460Z,52.14
2018-03-20T00:08:30.783Z,52.70
2018-03-20T00:09:30.714Z,53.27
2018-03-20T00:11:24.075Z,54.22
2018-03-20T00:12:24.038Z,54.79
2018-03-20T00:14:17.472Z,55.44
2018-03-20T00:15:17.400Z,56.96
2018-03-20T00:17:10.704Z,58.09
2018-03-20T00:18:10.665Z,59.13
2018-03-20T00:20:03.971Z,59.89
2018-03-20T00:21:03.899Z,60.55
2018-03-20T00:22:57.193Z,61.77
2018-03-20T00:23:57.148Z,61.87
2018-03-20T00:25:50.459Z,62.72
2018-03-20T00:26:50.400Z,62.72
2018-03-20T00:28:43.722Z,63.19
2018-03-20T00:29:43.652Z,63.19
2018-03-20T00:31:37.014Z,63.48
2018-03-20T00:32:36.970Z,63.67
2018-03-20T00:34:30.274Z,62.81
2018-03-20T00:35:30.315Z,62.62
2018-03-20T00:37:23.535Z,61.40
2018-03-20T00:38:23.462Z,61.77
2018-03-20T00:40:16.764Z,61.58
2018-03-20T00:41:16.700Z,61.68
2018-03-20T00:43:09.999Z,60.27
2018-03-20T00:44:09.948Z,60.74
2018-03-20T00:46:03.266Z,60.27
2018-03-20T00:47:03.186Z,60.83
2018-03-20T00:48:56.471Z,60.27
2018-03-20T00:49:56.428Z,60.27
2018-03-20T00:51:49.736Z,59.76
2018-03-20T00:52:49.674Z,60.42
2018-03-20T00:54:42.984Z,59.67
2018-03-20T00:55:42.920Z,59.86
2018-03-20T00:57:36.210Z,59.86
2018-03-20T00:58:36.229Z,59.57
2018-03-20T01:00:29.471Z,59.86
2018-03-20T01:01:29.403Z,59.95
2018-03-20T01:03:22.689Z,59.67
2018-03-20T01:04:22.641Z,59.95
2018-03-20T01:06:15.955Z,59.86
2018-03-20T01:07:15.893Z,60.14
2018-03-20T01:09:09.222Z,60.05
2018-03-20T01:10:09.140Z,59.95
2018-03-20T01:12:02.449Z,59.76
2018-03-20T01:13:02.374Z,60.14
2018-03-20T01:14:55.655Z,60.24
2018-03-20T01:15:55.627Z,59.95
2018-03-20T01:17:49.074Z,60.71
2018-03-20T01:18:48.898Z,60.52
2018-03-20T01:20:42.205Z,60.52
2018-03-20T01:21:42.141Z,60.71
2018-03-20T01:23:35.440Z,60.55
2018-03-20T01:24:35.389Z,59.86
2018-03-20T01:26:28.766Z,60.14
2018-03-20T01:27:28.682Z,60.14
2018-03-20T01:29:21.978Z,59.98
2018-03-20T01:30:21.933Z,60.17
2018-03-20T01:32:15.227Z,59.95
2018-03-20T01:33:15.165Z,59.76
2018-03-20T01:35:08.442Z,59.86
2018-03-20T01:36:08.402Z,60.08
2018-03-20T01:38:01.732Z,59.79
2018-03-20T01:39:01.652Z,59.86
2018-03-20T01:40:54.953Z,60.55
2018-03-20T01:41:54.904Z,60.55
2018-03-20T01:43:48.217Z,60.33
2018-03-20T01:44:48.136Z,60.99
2018-03-20T01:46:41.497Z,61.18
2018-03-20T01:47:41.417Z,61.65
2018-03-20T01:49:34.830Z,61.93
2018-03-20T01:50:34.668Z,61.74
2018-03-20T01:52:27.951Z,61.84
2018-03-20T01:53:27.896Z,61.93
2018-03-20T01:55:21.186Z,61.36
2018-03-20T01:56:21.149Z,62.21
2018-03-20T01:58:14.456Z,62.02
2018-03-20T01:59:14.384Z,62.59
2018-03-20T02:01:07.666Z,62.59
2018-03-20T02:02:07.620Z,62.59
2018-03-20T02:04:00.924Z,63.07
2018-03-20T02:05:00.866Z,63.07
2018-03-20T02:06:54.455Z,62.69
2018-03-20T02:07:54.268Z,63.07
2018-03-20T02:09:47.572Z,62.88
2018-03-20T02:10:47.519Z,62.97
2018-03-20T02:12:40.909Z,62.97
2018-03-20T02:13:40.751Z,62.88
2018-03-20T02:15:34.104Z,63.73
2018-03-20T02:16:34.030Z,63.63
2018-03-20T02:18:27.358Z,63.63
2018-03-20T02:19:27.321Z,63.82
2018-03-20T02:21:20.591Z,64.11
2018-03-20T02:22:20.536Z,64.20
2018-03-20T02:24:13.842Z,64.48
2018-03-20T02:25:13.772Z,64.48
2018-03-20T02:27:07.059Z,64.48
2018-03-20T02:28:07.022Z,64.29
2018-03-20T02:30:00.336Z,64.76
2018-03-20T02:31:00.265Z,64.39
2018-03-20T02:32:53.551Z,64.20
2018-03-20T02:33:53.502Z,64.48
2018-03-20T02:35:46.812Z,64.95
2018-03-20T02:36:46.747Z,64.95
2018-03-20T02:38:40.157Z,64.95
2018-03-20T02:39:40.008Z,64.95
2018-03-20T02:41:33.308Z,64.76
2018-03-20T02:42:33.238Z,64.95
2018-03-20T02:44:26.557Z,65.05
2018-03-20T02:45:26.491Z,64.76
2018-03-20T02:47:19.782Z,65.14
2018-03-20T02:48:19.756Z,65.42
2018-03-20T02:50:13.055Z,65.71
2018-03-20T02:51:12.987Z,65.42
2018-03-20T02:53:06.265Z,65.71
2018-03-20T02:54:06.221Z,65.80
2018-03-20T02:55:59.529Z,66.37
2018-03-20T02:56:59.476Z,66.47
2018-03-20T02:58:52.743Z,66.75
2018-03-20T02:59:52.693Z,66.75
2018-03-20T03:01:46.093Z,67.13
2018-03-20T03:02:45.943Z,67.13
2018-03-20T03:04:39.227Z,66.94
2018-03-20T03:05:39.187Z,67.13
2018-03-20T03:07:32.488Z,67.22
2018-03-20T03:08:32.428Z,67.22
2018-03-20T03:10:25.737Z,67.32
2018-03-20T03:11:25.663Z,67.41
2018-03-20T03:13:18.964Z,66.94
2018-03-20T03:14:18.914Z,67.13
2018-03-20T03:16:12.336Z,66.94
2018-03-20T03:17:12.156Z,66.84
2018-03-20T03:19:05.459Z,66.75
2018-03-20T03:20:05.393Z,66.18
2018-03-20T03:21:58.724Z,66.37
2018-03-20T03:22:58.648Z,65.61
2018-03-20T03:24:51.940Z,65.71
2018-03-20T03:25:51.888Z,65.90
2018-03-20T03:27:45.199Z,65.52
2018-03-20T03:28:45.138Z,65.52
2018-03-20T03:30:38.423Z,65.17
2018-03-20T03:31:38.382Z,64.79
2018-03-20T03:33:31.794Z,64.98
2018-03-20T03:34:31.618Z,64.79
2018-03-20T03:36:24.952Z,64.23
2018-03-20T03:37:24.886Z,63.57
2018-03-20T03:39:18.192Z,63.38
2018-03-20T03:40:18.132Z,63.10
2018-03-20T03:42:11.488Z,62.81
2018-03-20T03:43:11.411Z,62.81
2018-03-20T03:45:04.708Z,62.15
2018-03-20T03:46:05.728Z,61.77
2018-03-20T03:47:57.961Z,61.96
2018-03-20T03:48:57.904Z,62.25
2018-03-20T03:50:51.209Z,62.25
2018-03-20T03:51:51.147Z,61.96
2018-03-20T03:53:44.457Z,63.76
2018-03-20T03:54:44.392Z,64.70
2018-03-20T03:56:37.724Z,64.89
2018-03-20T03:57:37.653Z,64.79
2018-03-20T03:59:30.940Z,64.51
2018-03-20T04:00:30.879Z,64.51
2018-03-20T04:02:24.233Z,64.32
2018-03-20T04:03:24.138Z,64.42
2018-03-20T04:05:17.431Z,64.51
2018-03-20T04:06:17.382Z,64.51
2018-03-20T04:08:10.721Z,63.95
2018-03-20T04:09:10.641Z,63.85
2018-03-20T04:11:03.947Z,63.13
2018-03-20T04:12:03.891Z,63.10
2018-03-20T04:13:57.185Z,63.10
2018-03-20T04:14:57.138Z,62.91
2018-03-20T04:16:50.438Z,63.95
2018-03-20T04:17:50.408Z,66.03
2018-03-20T04:19:43.689Z,67.82
2018-03-20T04:20:43.623Z,68.10
2018-03-20T04:22:36.940Z,69.43
2018-03-20T04:23:36.900Z,70.03
2018-03-20T04:25:30.199Z,70.75
2018-03-20T04:26:30.144Z,70.47
2018-03-20T04:28:23.487Z,69.90
2018-03-20T04:29:23.399Z,69.33
2018-03-20T04:31:16.688Z,69.33
2018-03-20T04:32:16.659Z,69.43
2018-03-20T04:34:09.969Z,69.52
2018-03-20T04:35:09.908Z,69.52
2018-03-20T04:37:04.245Z,69.62
2018-03-20T04:38:04.165Z,69.62
2018-03-20T04:39:57.491Z,70.28
2018-03-20T04:40:57.418Z,70.00
2018-03-20T04:42:50.709Z,70.84
2018-03-20T04:43:50.660Z,70.84
2018-03-20T04:45:44.069Z,69.71
2018-03-20T04:46:43.912Z,70.84
2018-03-20T04:48:37.204Z,70.56
2018-03-20T04:49:37.170Z,70.56
2018-03-20T04:51:30.471Z,70.75
2018-03-20T04:52:30.414Z,70.75
2018-03-20T04:54:23.828Z,70.94
2018-03-20T04:55:23.696Z,70.00
2018-03-20T04:57:17.009Z,68.99
2018-03-20T04:58:16.939Z,69.65
2018-03-20T05:00:10.274Z,68.48
2018-03-20T05:01:10.208Z,68.76
2018-03-20T05:03:03.510Z,68.33
2018-03-20T05:04:03.463Z,68.10
2018-03-20T05:05:56.777Z,68.42
2018-03-20T05:06:56.719Z,68.04
2018-03-20T05:08:50.013Z,67.47
2018-03-20T05:09:49.978Z,66.82
2018-03-20T05:11:43.361Z,66.63
2018-03-20T05:12:43.293Z,66.35
2018-03-20T05:14:36.615Z,66.25
2018-03-20T05:15:36.574Z,66.06
2018-03-20T05:17:29.876Z,66.53
2018-03-20T05:18:29.823Z,66.35
2018-03-20T05:20:23.203Z,66.16
2018-03-20T05:21:23.170Z,66.63
2018-03-20T05:23:16.492Z,65.87
2018-03-20T05:24:16.442Z,65.97
2018-03-20T05:26:09.715Z,65.68
2018-03-20T05:27:09.673Z,65.87
2018-03-20T05:29:02.984Z,65.97
2018-03-20T05:30:02.929Z,66.06
2018-03-20T05:31:56.219Z,66.22
2018-03-20T05:32:56.175Z,66.78
2018-03-20T05:34:50.103Z,67.47
2018-03-20T05:35:49.419Z,67.47
2018-03-20T05:37:42.742Z,67.57
2018-03-20T05:38:42.684Z,68.04
2018-03-20T05:40:35.970Z,70.03
2018-03-20T05:41:35.928Z,70.50
2018-03-20T05:43:29.319Z,72.92
2018-03-20T05:44:29.202Z,74.05
2018-03-20T05:46:22.480Z,75.66
2018-03-20T05:47:22.419Z,76.98
2018-03-20T05:49:15.334Z,78.21
2018-03-20T05:50:15.271Z,78.68
2018-03-20T05:52:08.571Z,80.00
2018-03-20T05:53:08.516Z,79.82
2018-03-20T05:55:01.849Z,81.71
2018-03-20T05:56:01.790Z,81.23
2018-03-20T05:57:55.089Z,81.90
2018-03-20T05:58:55.041Z,81.80
2018-03-20T06:00:48.348Z,82.84
2018-03-20T06:01:48.391Z,83.03
2018-03-20T06:03:41.603Z,84.07
2018-03-20T06:04:41.534Z,84.16
2018-03-20T06:06:34.959Z,85.01
2018-03-20T06:07:34.912Z,85.58
2018-03-20T06:09:28.210Z,86.24
2018-03-20T06:10:28.204Z,86.52
2018-03-20T06:12:21.457Z,86.71
2018-03-20T06:13:21.406Z,85.96
2018-03-20T06:15:14.727Z,85.39
2018-03-20T06:16:14.668Z,85.58
2018-03-20T06:18:07.956Z,85.77
2018-03-20T06:19:07.960Z,86.05
2018-03-20T06:21:01.335Z,85.77
2018-03-20T06:22:01.164Z,86.05
2018-03-20T06:23:55.462Z,86.90
2018-03-20T06:24:55.395Z,86.62
2018-03-20T06:26:48.701Z,86.80
2018-03-20T06:27:48.648Z,87.18
2018-03-20T06:29:42.047Z,87.66
2018-03-20T06:30:41.891Z,88.04
2018-03-20T06:32:35.200Z,88.70
2018-03-20T06:33:35.140Z,88.23
2018-03-20T06:35:28.461Z,88.13
2018-03-20T06:36:28.392Z,87.94
2018-03-20T06:38:21.890Z,87.85
2018-03-20T06:39:21.669Z,87.75
2018-03-20T06:41:15.001Z,87.56
2018-03-20T06:42:14.945Z,88.23
2018-03-20T06:44:08.285Z,88.42
2018-03-20T06:45:08.200Z,88.79
2018-03-20T06:47:01.639Z,89.26
2018-03-20T06:48:01.450Z,89.92
2018-03-20T06:49:54.763Z,89.83
2018-03-20T06:50:54.770Z,90.30
2018-03-20T06:52:48.040Z,90.30
2018-03-20T06:53:47.947Z,90.96
2018-03-20T06:55:41.505Z,91.72
2018-03-20T06:56:41.336Z,91.82
2018-03-20T06:58:34.653Z,92.76
2018-03-20T06:59:34.638Z,93.04
2018-03-20T07:01:27.936Z,92.66
2018-03-20T07:02:27.867Z,93.23
2018-03-20T07:04:21.170Z,93.99
2018-03-20T07:05:21.122Z,93.61
2018-03-20T07:07:14.451Z,94.08
2018-03-20T07:08:14.393Z,94.18
2018-03-20T07:10:07.703Z,94.37
2018-03-20T07:11:07.648Z,94.37
2018-03-20T07:13:00.975Z,94.08
2018-03-20T07:14:00.896Z,94.27
2018-03-20T07:15:54.212Z,93.61
2018-03-20T07:16:54.143Z,93.89
2018-03-20T07:18:47.446Z,94.37
2018-03-20T07:19:47.412Z,94.18
2018-03-20T07:21:40.710Z,94.37
2018-03-20T07:22:40.637Z,94.37
2018-03-20T07:24:33.927Z,93.99
2018-03-20T07:25:33.881Z,93.89
2018-03-20T07:27:26.838Z,94.18
2018-03-20T07:28:26.865Z,94.46
2018-03-20T07:30:20.115Z,94.37
2018-03-20T07:31:20.035Z,93.89
2018-03-20T07:33:13.451Z,93.75
2018-03-20T07:34:13.275Z,93.42
2018-03-20T07:36:06.583Z,93.47
2018-03-20T07:37:06.547Z,93.28
2018-03-20T07:38:59.848Z,93.94
2018-03-20T07:39:59.790Z,93.84
2018-03-20T07:41:53.283Z,93.94
2018-03-20T07:42:53.131Z,94.32
2018-03-20T07:44:46.441Z,93.84
2018-03-20T07:45:46.427Z,92.99
2018-03-20T07:47:39.741Z,92.52
2018-03-20T07:48:39.637Z,92.90
2018-03-20T07:50:32.962Z,92.52
2018-03-20T07:51:32.917Z,92.61
2018-03-20T07:53:26.262Z,92.61
2018-03-20T07:54:26.182Z,92.71
2018-03-20T07:56:19.472Z,92.90
2018-03-20T07:57:19.468Z,93.37
2018-03-20T07:59:12.749Z,93.51
2018-03-20T08:00:12.678Z,93.75
2018-03-20T08:02:06.983Z,93.66
2018-03-20T08:03:06.950Z,93.56
2018-03-20T08:05:00.254Z,94.03
2018-03-20T08:06:00.201Z,94.03
2018-03-20T08:07:53.502Z,93.99
2018-03-20T08:08:53.434Z,93.89
2018-03-20T08:10:46.467Z,93.42
2018-03-20T08:11:46.351Z,93.80
2018-03-20T08:13:39.780Z,93.51
2018-03-20T08:14:39.734Z,93.51
2018-03-20T08:16:33.596Z,93.89
2018-03-20T08:17:32.958Z,93.70
2018-03-20T08:19:26.417Z,93.32
2018-03-20T08:20:26.361Z,93.32
2018-03-20T08:22:19.303Z,92.99
2018-03-20T08:23:19.314Z,92.52
2018-03-20T08:25:12.597Z,92.24
2018-03-20T08:26:12.368Z,92.24
2018-03-20T08:28:05.697Z,92.90
2018-03-20T08:29:05.637Z,92.99
2018-03-20T08:30:58.977Z,92.80
2018-03-20T08:31:58.921Z,93.51
2018-03-20T08:33:51.907Z,93.56
2018-03-20T08:34:51.847Z,93.18
2018-03-20T08:36:45.178Z,93.47
2018-03-20T08:37:45.166Z,93.18
2018-03-20T08:39:38.604Z,93.66
2018-03-20T08:40:38.450Z,93.37
2018-03-20T08:42:31.357Z,93.37
2018-03-20T08:43:31.284Z,93.56
2018-03-20T08:45:24.258Z,93.37
2018-03-20T08:46:24.189Z,93.56
2018-03-20T08:48:17.343Z,93.75
2018-03-20T08:49:17.268Z,93.37
2018-03-20T08:51:10.266Z,92.71
2018-03-20T08:52:10.168Z,92.80
2018-03-20T08:54:03.134Z,93.56
2018-03-20T08:55:03.077Z,93.18
2018-03-20T08:56:56.268Z,93.18
2018-03-20T08:57:56.154Z,93.09
2018-03-20T08:59:49.450Z,93.37
2018-03-20T09:00:49.416Z,93.09
2018-03-20T09:02:42.319Z,92.80
2018-03-20T09:03:42.259Z,93.66
2018-03-20T09:05:35.059Z,93.47
2018-03-20T09:06:35.002Z,93.66
2018-03-20T09:08:28.313Z,93.56
2018-03-20T09:09:28.255Z,93.85
2018-03-20T09:11:21.117Z,94.51
2018-03-20T09:12:21.043Z,94.04
2018-03-20T09:14:14.333Z,93.56
2018-03-20T09:15:14.424Z,93.94
2018-03-20T09:17:07.395Z,93.85
2018-03-20T09:18:07.345Z,93.56
2018-03-20T09:20:00.624Z,93.66
2018-03-20T09:21:00.624Z,93.85
2018-03-20T09:22:53.899Z,93.28
2018-03-20T09:23:53.832Z,93.28
2018-03-20T09:25:47.138Z,93.28
2018-03-20T09:26:47.116Z,93.61
2018-03-20T09:28:40.398Z,92.76
2018-03-20T09:29:40.339Z,92.66
2018-03-20T09:31:33.656Z,91.91
2018-03-20T09:32:33.608Z,91.81
2018-03-20T09:34:27.024Z,91.34
2018-03-20T09:35:26.856Z,91.53
2018-03-20T09:37:20.153Z,90.81
2018-03-20T09:38:20.098Z,90.06
2018-03-20T09:40:13.058Z,89.96
2018-03-20T09:41:13.023Z,90.06
2018-03-20T09:43:05.790Z,89.49
2018-03-20T09:44:05.763Z,89.68
2018-03-20T09:45:58.662Z,89.77
2018-03-20T09:46:58.544Z,89.49
2018-03-20T09:48:51.522Z,88.82
2018-03-20T09:49:51.450Z,88.64
2018-03-20T09:51:44.748Z,88.45
2018-03-20T09:52:44.706Z,88.11
2018-03-20T09:54:37.625Z,88.11
2018-03-20T09:55:37.469Z,88.30
2018-03-20T09:57:30.425Z,88.68
2018-03-20T09:58:30.380Z,87.92
2018-03-20T10:00:23.354Z,87.83
2018-03-20T10:01:23.299Z,87.83
2018-03-20T10:03:16.195Z,87.21
2018-03-20T10:04:16.160Z,86.83
2018-03-20T10:06:09.110Z,85.97
2018-03-20T10:07:08.939Z,84.65
2018-03-20T10:09:02.245Z,84.88
2018-03-20T10:10:02.180Z,83.42
2018-03-20T10:11:55.479Z,83.46
2018-03-20T10:12:55.459Z,82.79
2018-03-20T10:14:48.274Z,79.42
2018-03-20T10:15:48.220Z,77.77
2018-03-20T10:17:41.511Z,77.90
2018-03-20T10:18:41.494Z,77.29
2018-03-20T10:20:34.950Z,77.43
2018-03-20T10:21:34.885Z,76.48
2018-03-20T10:23:28.042Z,76.61
2018-03-20T10:24:27.805Z,75.47
2018-03-20T10:26:20.780Z,74.27
2018-03-20T10:27:20.740Z,73.42
2018-03-20T10:29:13.969Z,72.00
2018-03-20T10:30:13.878Z,70.67
2018-03-20T10:32:07.217Z,68.83
2018-03-20T10:33:07.102Z,68.83
2018-03-20T10:34:59.969Z,69.96
2018-03-20T10:35:59.890Z,69.74
2018-03-20T10:37:53.194Z,69.96
2018-03-20T10:38:53.205Z,70.38
2018-03-20T10:40:46.537Z,68.86
2018-03-20T10:41:46.431Z,68.42
2018-03-20T10:43:39.772Z,65.73
2018-03-20T10:44:39.719Z,67.12
2018-03-20T10:46:33.070Z,67.91
2018-03-20T10:47:32.995Z,68.19
2018-03-20T10:49:26.311Z,66.01
2018-03-20T10:50:26.277Z,65.98
2018-03-20T10:52:19.727Z,65.25
2018-03-20T10:53:19.600Z,63.32
2018-03-20T10:55:12.532Z,63.35
2018-03-20T10:56:12.506Z,63.07
2018-03-20T10:58:05.358Z,61.96
2018-03-20T10:59:05.280Z,60.98
2018-03-20T11:00:58.910Z,61.10
2018-03-20T11:01:58.588Z,61.10
2018-03-20T11:03:51.901Z,59.17
2018-03-20T11:04:51.850Z,57.62
2018-03-20T11:06:45.181Z,57.26
2018-03-20T11:07:45.137Z,55.46
2018-03-20T11:09:38.459Z,55.10
2018-03-20T11:10:38.422Z,53.49
2018-03-20T11:12:31.767Z,52.13
2018-03-20T11:13:31.710Z,53.55
2018-03-20T11:15:25.041Z,52.67
2018-03-20T11:16:25.006Z,52.51
2018-03-20T11:18:18.391Z,51.61
2018-03-20T11:19:18.304Z,50.44
2018-03-20T11:21:11.611Z,50.25
2018-03-20T11:22:11.600Z,50.44
2018-03-20T11:24:04.943Z,51.20
2018-03-20T11:25:04.895Z,50.15
2018-03-20T11:26:58.242Z,49.11
2018-03-20T11:27:58.176Z,48.80
2018-03-20T11:29:51.513Z,49.37
2018-03-20T11:30:51.478Z,48.61
2018-03-20T11:32:44.925Z,47.75
2018-03-20T11:33:44.780Z,47.78
2018-03-20T11:35:38.091Z,47.58
2018-03-20T11:36:38.086Z,46.73
2018-03-20T11:38:31.603Z,46.11
2018-03-20T11:39:31.429Z,44.59
2018-03-20T11:41:24.756Z,42.56
2018-03-20T11:42:24.721Z,42.83
2018-03-20T11:44:18.072Z,41.42
2018-03-20T11:45:18.033Z,41.21
2018-03-20T11:47:11.495Z,42.28
2018-03-20T11:48:11.325Z,41.61
2018-03-20T11:50:04.670Z,40.47
2018-03-20T11:51:04.612Z,40.56
2018-03-20T11:52:58.031Z,39.92
2018-03-20T11:53:57.905Z,40.03
2018-03-20T11:55:51.345Z,40.45
2018-03-20T11:56:51.211Z,41.13
2018-03-20T11:58:44.537Z,41.04
2018-03-20T11:59:44.513Z,41.23
2018-03-20T12:01:37.807Z,41.23
2018-03-20T12:02:37.802Z,40.75
2018-03-20T12:04:31.171Z,41.13
2018-03-20T12:05:31.068Z,41.63
2018-03-20T12:07:24.387Z,41.23
2018-03-20T12:08:24.357Z,42.35
2018-03-20T12:10:17.702Z,41.80
2018-03-20T12:11:17.646Z,42.30
2018-03-20T12:13:10.968Z,40.01
2018-03-20T12:14:10.928Z,39.99
2018-03-20T12:16:04.268Z,40.28
2018-03-20T12:17:04.243Z,39.80
2018-03-20T12:18:57.552Z,38.56
2018-03-20T12:19:57.528Z,38.28
2018-03-20T12:21:50.884Z,38.58
2018-03-20T12:22:50.804Z,38.09
2018-03-20T12:24:44.207Z,37.34
2018-03-20T12:25:44.198Z,38.39
2018-03-20T12:27:37.534Z,37.65
2018-03-20T12:28:37.481Z,37.32
2018-03-20T12:30:30.817Z,36.87
2018-03-20T12:31:30.754Z,37.65
2018-03-20T12:33:24.220Z,35.55
2018-03-20T12:34:24.091Z,36.32
2018-03-20T12:36:17.412Z,35.61
2018-03-20T12:37:17.373Z,35.25
2018-03-20T12:39:10.732Z,35.15
2018-03-20T12:40:10.673Z,35.63
2018-03-20T12:42:04.111Z,34.77
2018-03-20T12:43:03.967Z,34.39
2018-03-20T12:44:57.278Z,34.50
2018-03-20T12:45:57.246Z,33.74
2018-03-20T12:47:50.588Z,32.48
2018-03-20T12:48:50.539Z,32.58
2018-03-20T12:50:43.892Z,33.45
2018-03-20T12:51:43.835Z,33.85
2018-03-20T12:53:37.171Z,32.63
2018-03-20T12:54:37.153Z,32.50
2018-03-20T12:56:30.442Z,33.17
2018-03-20T12:57:30.400Z,33.00
2018-03-20T12:59:23.768Z,32.40
2018-03-20T13:00:23.697Z,32.48
2018-03-20T13:02:17.041Z,32.77
2018-03-20T13:03:16.993Z,32.85
2018-03-20T13:05:10.313Z,32.87
2018-03-20T13:06:10.283Z,33.26
2018-03-20T13:08:03.614Z,31.82
2018-03-20T13:09:03.565Z,32.12
2018-03-20T13:10:56.873Z,31.74
2018-03-20T13:11:56.839Z,31.45
2018-03-20T13:13:50.195Z,31.18
2018-03-20T13:14:50.137Z,30.21
2018-03-20T13:16:43.458Z,30.21
2018-03-20T13:17:43.418Z,29.83
2018-03-20T13:19:36.852Z,29.36
2018-03-20T13:20:36.795Z,29.83
2018-03-20T13:22:30.109Z,29.83
2018-03-20T13:23:30.092Z,29.72
2018-03-20T13:25:23.405Z,29.25
2018-03-20T13:26:23.368Z,29.42
2018-03-20T13:28:16.795Z,29.25
2018-03-20T13:29:16.723Z,28.47
2018-03-20T13:31:10.027Z,26.95
2018-03-20T13:32:09.974Z,27.34
2018-03-20T13:34:03.325Z,27.15
2018-03-20T13:35:03.263Z,27.71
2018-03-20T13:36:56.662Z,28.10
2018-03-20T13:37:56.565Z,27.73
2018-03-20T13:39:49.921Z,27.64
2018-03-20T13:40:49.832Z,27.07
2018-03-20T13:42:43.180Z,26.77
2018-03-20T13:43:43.161Z,26.97
2018-03-20T13:45:36.499Z,28.02
2018-03-20T13:46:36.412Z,28.02
2018-03-20T13:48:29.749Z,28.02
2018-03-20T13:49:29.704Z,27.64
2018-03-20T13:51:23.034Z,27.92
2018-03-20T13:52:22.988Z,26.40
2018-03-20T13:54:16.309Z,26.50
2018-03-20T13:55:16.295Z,25.92
2018-03-20T13:57:09.603Z,26.03
2018-03-20T13:58:09.549Z,25.57
2018-03-20T14:00:02.940Z,24.22
2018-03-20T14:01:02.868Z,25.37
2018-03-20T14:02:56.149Z,25.24
2018-03-20T14:03:56.108Z,25.35
2018-03-20T14:05:49.455Z,24.87
2018-03-20T14:06:49.400Z,25.45
2018-03-20T14:08:42.719Z,24.29
2018-03-20T14:09:42.686Z,23.80
2018-03-20T14:11:36.010Z,24.09
2018-03-20T14:12:35.961Z,24.48
2018-03-20T14:14:29.546Z,24.96
2018-03-20T14:15:29.386Z,24.11
2018-03-20T14:17:22.718Z,24.30
2018-03-20T14:18:22.658Z,24.40
2018-03-20T14:20:15.993Z,25.05
2018-03-20T14:21:15.938Z,25.61
2018-03-20T14:23:09.399Z,25.61
2018-03-20T14:24:09.298Z,25.82
2018-03-20T14:26:02.663Z,25.72
2018-03-20T14:27:02.572Z,25.54
2018-03-20T14:28:55.896Z,23.91
2018-03-20T14:29:55.842Z,22.67
2018-03-20T14:31:49.310Z,23.44
2018-03-20T14:32:49.124Z,23.74
2018-03-20T14:34:42.457Z,23.07
2018-03-20T14:35:42.406Z,23.43
2018-03-20T14:37:35.739Z,24.02
2018-03-20T14:38:35.688Z,23.82
2018-03-20T14:40:29.068Z,24.21
2018-03-20T14:41:29.020Z,23.53
2018-03-20T14:43:22.328Z,24.77
2018-03-20T14:44:22.292Z,24.96
2018-03-20T14:46:15.607Z,24.39
2018-03-20T14:47:15.580Z,24.87
2018-03-20T14:49:09.928Z,23.99
2018-03-20T14:50:09.863Z,24.85
2018-03-20T14:52:03.320Z,25.33
2018-03-20T14:53:03.251Z,24.28
2018-03-20T14:54:56.614Z,24.57
2018-03-20T14:55:56.539Z,24.28
2018-03-20T14:57:49.862Z,24.87
2018-03-20T14:58:49.809Z,24.96
2018-03-20T15:00:43.124Z,24.95
2018-03-20T15:01:43.090Z,25.04
2018-03-20T15:03:36.408Z,25.90
2018-03-20T15:04:36.357Z,25.52
2018-03-20T15:06:29.666Z,25.52
2018-03-20T15:07:29.635Z,25.42
2018-03-20T15:09:22.972Z,25.89
2018-03-20T15:10:22.902Z,25.41
2018-03-20T15:12:16.219Z,24.93
2018-03-20T15:13:16.199Z,25.40
2018-03-20T15:15:09.515Z,25.96
2018-03-20T15:16:09.463Z,26.35
2018-03-20T15:18:02.762Z,25.87
2018-03-20T15:19:02.725Z,25.78
2018-03-20T15:20:55.765Z,25.78
2018-03-20T15:21:55.695Z,25.89
2018-03-20T15:23:49.028Z,25.12
2018-03-20T15:24:48.970Z,25.03
2018-03-20T15:26:42.283Z,25.30
2018-03-20T15:27:42.238Z,25.70
2018-03-20T15:29:35.529Z,25.89
2018-03-20T15:30:35.497Z,26.06
2018-03-20T15:32:28.835Z,26.64
2018-03-20T15:33:28.792Z,27.20
2018-03-20T15:35:22.104Z,27.60
2018-03-20T15:36:22.034Z,27.88
2018-03-20T15:38:15.338Z,27.22
2018-03-20T15:39:15.305Z,27.11
2018-03-20T15:41:08.314Z,26.64
2018-03-20T15:42:08.245Z,26.16
2018-03-20T15:44:01.545Z,25.59
2018-03-20T15:45:01.501Z,25.49
2018-03-20T15:46:54.843Z,25.79
2018-03-20T15:47:54.791Z,25.60
2018-03-20T15:49:48.112Z,25.78
2018-03-20T15:50:48.114Z,25.02
2018-03-20T15:52:41.396Z,25.78
2018-03-20T15:53:41.350Z,25.96
2018-03-20T15:55:34.170Z,26.35
2018-03-20T15:56:34.103Z,26.35
2018-03-20T15:58:27.585Z,25.68
2018-03-20T15:59:27.386Z,26.17
2018-03-20T16:01:20.686Z,25.79
2018-03-20T16:02:20.659Z,25.68
2018-03-20T16:04:13.974Z,25.89
2018-03-20T16:05:13.939Z,26.16
2018-03-20T16:07:07.331Z,26.06
2018-03-20T16:08:07.286Z,26.44
2018-03-20T16:10:00.628Z,26.82
2018-03-20T16:11:00.576Z,26.25
2018-03-20T16:12:53.635Z,26.16
2018-03-20T16:13:53.570Z,26.64
2018-03-20T16:15:46.889Z,27.01
2018-03-20T16:16:46.888Z,26.82
2018-03-20T16:18:39.848Z,26.82
2018-03-20T16:19:39.646Z,27.20
2018-03-20T16:21:33.965Z,27.39
2018-03-20T16:22:33.899Z,27.20
2018-03-20T16:24:27.224Z,26.82
2018-03-20T16:25:27.167Z,26.82
2018-03-20T16:27:20.613Z,26.73
2018-03-20T16:28:20.470Z,26.64
2018-03-20T16:30:13.797Z,26.73
2018-03-20T16:31:13.736Z,26.64
2018-03-20T16:33:07.030Z,26.24
2018-03-20T16:34:07.023Z,26.53
2018-03-20T16:35:59.981Z,26.05
2018-03-20T16:36:59.993Z,26.14
2018-03-20T16:38:53.286Z,26.24
2018-03-20T16:39:53.197Z,26.81
2018-03-20T16:41:46.170Z,27.19
2018-03-20T16:42:46.112Z,26.90
2018-03-20T16:44:39.435Z,27.19
2018-03-20T16:45:39.362Z,27.57
2018-03-20T16:47:32.305Z,27.38
2018-03-20T16:48:32.330Z,27.76
2018-03-20T16:50:25.244Z,27.86
2018-03-20T16:51:25.176Z,28.33
2018-03-20T16:53:18.497Z,28.90
2018-03-20T16:54:18.467Z,29.57
2018-03-20T16:56:11.402Z,29.95
2018-03-20T16:57:11.362Z,29.57
2018-03-20T16:59:04.681Z,29.47
2018-03-20T17:00:04.615Z,29.66
2018-03-20T17:01:58.119Z,29.47
2018-03-20T17:02:57.900Z,28.98
2018-03-20T17:04:50.898Z,29.93
2018-03-20T17:05:50.803Z,29.84
2018-03-20T17:07:44.100Z,29.27
2018-03-20T17:08:44.061Z,28.51
2018-03-20T17:10:37.006Z,28.79
2018-03-20T17:11:36.832Z,28.41
2018-03-20T17:13:29.797Z,27.75
2018-03-20T17:14:29.768Z,27.84
2018-03-20T17:16:22.763Z,28.03
2018-03-20T17:17:22.698Z,27.75
2018-03-20T17:19:16.013Z,28.21
2018-03-20T17:20:15.975Z,28.30
2018-03-20T17:22:09.406Z,29.53
2018-03-20T17:23:09.239Z,29.06
2018-03-20T17:25:02.582Z,29.25
2018-03-20T17:26:02.505Z,29.82
2018-03-20T17:27:55.832Z,30.68
2018-03-20T17:28:55.788Z,30.77
2018-03-20T17:30:49.949Z,31.44
2018-03-20T17:31:49.882Z,31.72
2018-03-20T17:33:43.204Z,32.29
2018-03-20T17:34:43.253Z,31.92
2018-03-20T17:36:36.481Z,32.10
2018-03-20T17:37:36.412Z,32.29
2018-03-20T17:39:29.812Z,31.82
2018-03-20T17:40:29.763Z,32.09
2018-03-20T17:42:23.094Z,32.75
2018-03-20T17:43:23.041Z,32.84
2018-03-20T17:45:16.438Z,33.42
2018-03-20T17:46:16.359Z,33.04
2018-03-20T17:48:09.642Z,33.13
2018-03-20T17:49:09.575Z,33.32
2018-03-20T17:51:02.893Z,33.23
2018-03-20T17:52:02.841Z,33.70
2018-03-20T17:53:56.158Z,33.42
2018-03-20T17:54:56.085Z,33.61
2018-03-20T17:56:49.416Z,33.89
2018-03-20T17:57:49.349Z,33.70
2018-03-20T17:59:42.673Z,34.65
2018-03-20T18:00:42.616Z,34.75
2018-03-20T18:02:35.954Z,34.55
2018-03-20T18:03:35.901Z,34.94
2018-03-20T18:05:29.327Z,35.22
2018-03-20T18:06:29.248Z,35.11
2018-03-20T18:08:22.543Z,35.20
2018-03-20T18:09:22.479Z,35.30
2018-03-20T18:11:15.795Z,36.15
2018-03-20T18:12:15.731Z,36.34
2018-03-20T18:14:09.152Z,36.72
2018-03-20T18:15:09.073Z,37.10
2018-03-20T18:17:02.399Z,38.14
2018-03-20T18:18:02.438Z,38.24
2018-03-20T18:19:55.631Z,38.90
2018-03-20T18:20:55.571Z,39.57
2018-03-20T18:22:48.937Z,39.85
2018-03-20T18:23:48.833Z,41.27
2018-03-20T18:25:42.172Z,41.08
2018-03-20T18:26:42.101Z,41.27
2018-03-20T18:28:35.433Z,42.03
2018-03-20T18:29:35.343Z,42.41
2018-03-20T18:31:28.813Z,42.79
2018-03-20T18:32:28.766Z,42.89
2018-03-20T18:34:21.723Z,43.17
2018-03-20T18:35:21.656Z,43.46